createdAt,value
2023-02-11T00:00:42.129Z,0.55
2023-02-11T00:01:42.119Z,0.54
2023-02-11T00:02:42.111Z,0.54
2023-02-11T00:03:42.169Z,0.54
2023-02-11T00:04:42.089Z,0.54
2023-02-11T00:55:22.637Z,0.50
2023-02-11T00:56:23.605Z,0.50
2023-02-11T00:57:23.606Z,0.50
2023-02-11T00:58:23.584Z,0.50
2023-02-11T00:59:23.572Z,0.50
2023-02-11T01:00:23.563Z,0.50
2023-02-11T01:01:23.610Z,0.38
2023-02-11T01:02:23.546Z,0.34
2023-02-11T01:03:23.551Z,0.34
2023-02-11T01:04:23.531Z,0.34
2023-02-11T01:05:23.679Z,0.34
2023-02-11T01:06:23.517Z,0.34
2023-02-11T01:07:23.593Z,0.34
2023-02-11T01:08:23.543Z,0.39
2023-02-11T01:09:23.491Z,0.44
2023-02-11T01:10:23.497Z,0.50
2023-02-11T01:11:23.506Z,0.50
2023-02-11T01:12:23.471Z,0.51
2023-02-11T01:13:23.452Z,0.50
2023-02-11T01:14:23.447Z,0.50
2023-02-11T01:15:23.440Z,0.50
2023-02-11T01:16:23.524Z,0.50
2023-02-11T01:17:23.422Z,0.50
2023-02-11T01:18:23.411Z,0.50
2023-02-11T01:19:23.410Z,0.51
2023-02-11T01:20:23.396Z,0.51
2023-02-11T01:21:23.390Z,0.50
2023-02-11T01:22:23.372Z,0.50
2023-02-11T01:23:23.365Z,0.51
2023-02-11T01:24:23.369Z,0.50
2023-02-11T01:25:23.361Z,0.51
2023-02-11T01:26:23.338Z,0.50
2023-02-11T01:27:23.360Z,0.52
2023-02-11T01:28:23.358Z,0.52
2023-02-11T01:29:23.311Z,0.50
2023-02-11T01:30:23.304Z,0.51
2023-02-11T01:31:23.370Z,0.50
2023-02-11T01:32:23.286Z,0.51
2023-02-11T01:33:23.299Z,0.51
2023-02-11T01:34:23.275Z,0.51
2023-02-11T01:35:23.260Z,0.51
2023-02-11T01:36:23.256Z,0.50
2023-02-11T01:37:23.245Z,0.51
2023-02-11T01:38:23.231Z,0.50
2023-02-11T01:39:23.230Z,0.51
2023-02-11T01:40:23.215Z,0.51
2023-02-11T01:41:23.216Z,0.50
2023-02-11T01:42:23.207Z,0.52
2023-02-11T01:43:23.228Z,0.51
2023-02-11T01:44:23.179Z,0.51
2023-02-11T01:45:23.172Z,0.50
2023-02-11T01:46:23.245Z,0.51
2023-02-11T01:47:23.167Z,0.52
2023-02-11T01:48:23.148Z,0.51
2023-02-11T01:49:23.214Z,0.50
2023-02-11T01:50:23.127Z,0.51
2023-02-11T01:51:23.124Z,0.50
2023-02-11T01:52:23.106Z,0.50
2023-02-11T01:53:23.102Z,0.50
2023-02-11T01:54:23.092Z,0.50
2023-02-11T01:55:23.087Z,0.50
2023-02-11T01:56:23.078Z,0.51
2023-02-11T01:57:23.079Z,0.51
2023-02-11T01:58:23.062Z,0.51
2023-02-11T01:59:23.070Z,0.51
2023-02-11T02:00:23.040Z,0.51
2023-02-11T02:01:23.107Z,0.51
2023-02-11T02:02:23.021Z,0.52
2023-02-11T02:03:23.044Z,0.53
2023-02-11T02:04:23.009Z,0.51
2023-02-11T02:05:22.992Z,0.52
2023-02-11T02:06:23.015Z,0.51
2023-02-11T02:07:22.976Z,0.52
2023-02-11T02:08:23.024Z,0.52
2023-02-11T02:09:22.983Z,0.51
2023-02-11T02:10:22.954Z,0.51
2023-02-11T02:11:22.945Z,0.52
2023-02-11T02:12:22.927Z,0.51
2023-02-11T02:13:22.921Z,0.51
2023-02-11T02:14:22.913Z,0.51
2023-02-11T02:15:22.949Z,0.51
2023-02-11T02:16:22.929Z,0.51
2023-02-11T02:17:22.888Z,0.52
2023-02-11T02:18:22.892Z,0.51
2023-02-11T02:19:22.868Z,0.51
2023-02-11T02:20:22.860Z,0.51
2023-02-11T02:21:22.851Z,0.51
2023-02-11T02:22:22.838Z,0.52
2023-02-11T02:23:22.867Z,0.51
2023-02-11T02:24:22.841Z,0.52
2023-02-11T02:25:22.811Z,0.52
2023-02-11T02:26:22.814Z,0.51
2023-02-11T02:27:22.797Z,0.52
2023-02-11T02:28:22.820Z,0.51
2023-02-11T02:29:22.778Z,0.52
2023-02-11T02:30:22.825Z,0.51
2023-02-11T02:31:22.831Z,0.51
2023-02-11T02:32:22.760Z,0.51
2023-02-11T02:33:23.239Z,0.51
2023-02-11T02:34:22.729Z,0.52
2023-02-11T02:35:22.728Z,0.51
2023-02-11T02:36:22.713Z,0.52
2023-02-11T02:37:22.714Z,0.52
2023-02-11T02:38:22.704Z,0.53
2023-02-11T02:39:22.686Z,0.52
2023-02-11T02:40:22.679Z,0.52
2023-02-11T02:41:22.670Z,0.52
2023-02-11T02:42:22.667Z,0.52
2023-02-11T02:43:22.663Z,0.50
2023-02-11T02:44:22.648Z,0.52
2023-02-11T02:45:22.635Z,0.52
2023-02-11T02:46:22.661Z,0.51
2023-02-11T02:47:22.643Z,0.52
2023-02-11T02:48:22.608Z,0.52
2023-02-11T02:49:22.617Z,0.51
2023-02-11T02:50:22.589Z,0.52
2023-02-11T02:51:22.581Z,0.52
2023-02-11T02:52:22.571Z,0.51
2023-02-11T02:53:22.567Z,0.52
2023-02-11T02:54:22.560Z,0.51
2023-02-11T02:55:22.558Z,0.52
2023-02-11T02:56:22.534Z,0.52
2023-02-11T02:57:22.526Z,0.51
2023-02-11T02:58:22.520Z,0.51
2023-02-11T02:59:22.513Z,0.52
2023-02-11T03:00:22.504Z,0.52
2023-02-11T03:01:22.502Z,0.52
2023-02-11T03:02:22.485Z,0.51
2023-02-11T03:03:22.530Z,0.52
2023-02-11T03:04:22.470Z,0.50
2023-02-11T03:05:22.466Z,0.53
2023-02-11T03:06:22.449Z,0.50
2023-02-11T03:07:22.439Z,0.52
2023-02-11T03:08:22.432Z,0.51
2023-02-11T03:09:22.455Z,0.52
2023-02-11T03:10:22.416Z,0.52
2023-02-11T03:11:22.464Z,0.53
2023-02-11T03:12:22.402Z,0.52
2023-02-11T03:13:22.385Z,0.52
2023-02-11T03:14:22.378Z,0.52
2023-02-11T03:15:22.381Z,0.51
2023-02-11T03:16:22.448Z,0.51
2023-02-11T03:17:22.351Z,0.52
2023-02-11T03:18:22.340Z,0.51
2023-02-11T03:19:22.356Z,0.51
2023-02-11T03:20:22.328Z,0.51
2023-02-11T03:21:22.318Z,0.52
2023-02-11T03:22:22.306Z,0.51
2023-02-11T03:23:22.296Z,0.50
2023-02-11T03:24:22.293Z,0.52
2023-02-11T03:25:22.286Z,0.52
2023-02-11T03:26:22.270Z,0.52
2023-02-11T03:27:22.259Z,0.51
2023-02-11T03:28:22.333Z,0.52
2023-02-11T03:29:22.244Z,0.52
2023-02-11T03:30:22.235Z,0.52
2023-02-11T03:31:22.413Z,0.51
2023-02-11T03:32:22.225Z,0.51
2023-02-11T03:33:22.205Z,0.50
2023-02-11T03:34:22.198Z,0.52
2023-02-11T03:35:22.228Z,0.50
2023-02-11T03:36:22.178Z,0.52
2023-02-11T03:37:22.210Z,0.52
2023-02-11T03:38:22.167Z,0.51
2023-02-11T03:39:22.152Z,0.51
2023-02-11T03:40:22.186Z,0.52
2023-02-11T03:41:22.135Z,0.52
2023-02-11T03:42:22.123Z,0.53
2023-02-11T03:43:22.119Z,0.52
2023-02-11T03:44:22.109Z,0.51
2023-02-11T03:45:22.100Z,0.52
2023-02-11T03:46:22.151Z,0.51
2023-02-11T03:47:22.076Z,0.52
2023-02-11T03:48:22.073Z,0.51
2023-02-11T03:49:22.058Z,0.51
2023-02-11T03:50:22.059Z,0.52
2023-02-11T03:51:22.081Z,0.51
2023-02-11T03:52:22.042Z,0.52
2023-02-11T03:53:22.030Z,0.53
2023-02-11T03:54:22.025Z,0.53
2023-02-11T03:55:22.004Z,0.51
2023-02-11T03:56:22.010Z,0.53
2023-02-11T03:57:21.998Z,0.53
2023-02-11T03:58:21.991Z,0.53
2023-02-11T03:59:21.982Z,0.52
2023-02-11T04:00:21.964Z,0.52
2023-02-11T04:01:22.021Z,0.52
2023-02-11T04:02:21.944Z,0.52
2023-02-11T04:03:22.020Z,0.52
2023-02-11T04:04:21.933Z,0.52
2023-02-11T04:05:21.926Z,0.51
2023-02-11T04:06:21.913Z,0.52
2023-02-11T04:07:21.923Z,0.53
2023-02-11T04:08:21.889Z,0.53
2023-02-11T04:09:21.882Z,0.52
2023-02-11T04:10:21.877Z,0.52
2023-02-11T04:11:21.865Z,0.52
2023-02-11T04:12:21.858Z,0.52
2023-02-11T04:13:21.844Z,0.52
2023-02-11T04:14:21.838Z,0.53
2023-02-11T04:15:21.837Z,0.52
2023-02-11T04:16:21.901Z,0.52
2023-02-11T04:17:21.811Z,0.52
2023-02-11T04:18:21.805Z,0.52
2023-02-11T04:19:21.793Z,0.51
2023-02-11T04:20:21.804Z,0.53
2023-02-11T04:21:21.781Z,0.53
2023-02-11T04:22:21.769Z,0.52
2023-02-11T04:23:21.790Z,0.52
2023-02-11T04:24:21.747Z,0.51
2023-02-11T04:25:21.808Z,0.53
2023-02-11T04:26:21.739Z,0.51
2023-02-11T04:27:21.742Z,0.52
2023-02-11T04:28:21.825Z,0.51
2023-02-11T04:29:21.704Z,0.52
2023-02-11T04:30:21.699Z,0.53
2023-02-11T04:31:21.831Z,0.52
2023-02-11T04:32:21.693Z,0.53
2023-02-11T04:33:21.691Z,0.53
2023-02-11T04:34:21.657Z,0.53
2023-02-11T04:35:21.655Z,0.53
2023-02-11T04:36:21.653Z,0.52
2023-02-11T04:37:21.629Z,0.52
2023-02-11T04:38:21.637Z,0.53
2023-02-11T04:39:21.644Z,0.52
2023-02-11T04:40:21.618Z,0.51
2023-02-11T04:41:21.596Z,0.51
2023-02-11T04:42:21.589Z,0.53
2023-02-11T04:43:21.590Z,0.51
2023-02-11T04:44:21.573Z,0.51
2023-02-11T04:45:21.565Z,0.52
2023-02-11T04:46:21.642Z,0.51
2023-02-11T04:47:21.558Z,0.52
2023-02-11T04:48:21.538Z,0.52
2023-02-11T04:49:21.531Z,0.52
2023-02-11T04:50:21.522Z,0.53
2023-02-11T04:51:21.511Z,0.52
2023-02-11T04:52:21.514Z,0.51
2023-02-11T04:53:21.500Z,0.53
2023-02-11T04:54:21.516Z,0.52
2023-02-11T04:55:21.508Z,0.52
2023-02-11T04:56:21.468Z,0.53
2023-02-11T04:57:21.455Z,0.53
2023-02-11T04:58:21.449Z,0.54
2023-02-11T04:59:21.445Z,0.52
2023-02-11T05:00:21.433Z,0.52
2023-02-11T05:01:21.506Z,0.52
2023-02-11T05:02:21.440Z,0.52
2023-02-11T05:03:21.407Z,0.52
2023-02-11T05:04:21.451Z,0.52
2023-02-11T05:05:21.385Z,0.51
2023-02-11T05:06:21.369Z,0.51
2023-02-11T05:07:21.365Z,0.51
2023-02-11T05:08:21.355Z,0.53
2023-02-11T05:09:21.346Z,0.53
2023-02-11T05:10:21.343Z,0.52
2023-02-11T05:11:21.354Z,0.52
2023-02-11T05:12:21.318Z,0.53
2023-02-11T05:13:21.305Z,0.51
2023-02-11T05:14:21.302Z,0.52
2023-02-11T05:15:21.290Z,0.52
2023-02-11T05:16:21.346Z,0.51
2023-02-11T05:17:21.281Z,0.51
2023-02-11T05:18:21.261Z,0.51
2023-02-11T05:19:21.253Z,0.51
2023-02-11T05:20:21.246Z,0.51
2023-02-11T05:21:21.242Z,0.52
2023-02-11T05:22:21.254Z,0.53
2023-02-11T05:23:21.221Z,0.52
2023-02-11T05:24:21.221Z,0.51
2023-02-11T05:25:21.200Z,0.52
2023-02-11T05:26:21.187Z,0.52
2023-02-11T05:27:21.221Z,0.52
2023-02-11T05:28:21.229Z,0.53
2023-02-11T05:29:21.192Z,0.53
2023-02-11T05:30:21.165Z,0.51
2023-02-11T05:31:21.150Z,0.52
2023-02-11T05:32:21.147Z,0.54
2023-02-11T05:33:21.130Z,0.52
2023-02-11T05:34:21.120Z,0.52
2023-02-11T05:35:21.147Z,0.53
2023-02-11T05:36:21.103Z,0.51
2023-02-11T05:37:21.161Z,0.52
2023-02-11T05:38:21.093Z,0.52
2023-02-11T05:39:21.076Z,0.52
2023-02-11T05:40:21.065Z,0.52
2023-02-11T05:41:21.057Z,0.52
2023-02-11T05:42:21.063Z,0.53
2023-02-11T05:43:21.063Z,0.52
2023-02-11T05:44:21.035Z,0.52
2023-02-11T05:45:21.024Z,0.52
2023-02-11T05:46:21.022Z,0.53
2023-02-11T05:47:21.008Z,0.52
2023-02-11T05:48:20.992Z,0.53
2023-02-11T05:49:21.012Z,0.52
2023-02-11T05:50:20.977Z,0.53
2023-02-11T05:51:20.977Z,0.53
2023-02-11T05:52:20.961Z,0.53
2023-02-11T05:53:20.949Z,0.52
2023-02-11T05:54:20.959Z,0.53
2023-02-11T05:55:20.934Z,0.53
2023-02-11T05:56:20.923Z,0.53
2023-02-11T05:57:20.914Z,0.53
2023-02-11T05:58:20.912Z,0.53
2023-02-11T05:59:20.924Z,0.53
2023-02-11T06:00:20.906Z,0.53
2023-02-11T06:01:20.887Z,0.53
2023-02-11T06:02:41.888Z,0.53
2023-02-11T06:04:20.852Z,0.54
2023-02-11T06:05:20.845Z,0.55
2023-02-11T06:06:20.837Z,0.54
2023-02-11T06:07:20.827Z,0.55
2023-02-11T06:08:20.818Z,0.55
2023-02-11T06:09:20.809Z,0.54
2023-02-11T06:10:20.794Z,0.52
2023-02-11T06:11:20.790Z,0.54
2023-02-11T06:12:20.779Z,0.54
2023-02-11T06:13:20.778Z,0.55
2023-02-11T06:14:20.763Z,0.54
2023-02-11T06:15:20.781Z,0.54
2023-02-11T06:16:20.786Z,0.53
2023-02-11T06:17:20.762Z,0.53
2023-02-11T06:18:20.724Z,0.54
2023-02-11T06:19:20.712Z,0.55
2023-02-11T06:20:20.708Z,0.54
2023-02-11T06:21:20.698Z,0.53
2023-02-11T06:22:20.708Z,0.53
2023-02-11T06:23:20.705Z,0.54
2023-02-11T06:24:33.137Z,0.53
2023-02-11T06:25:20.663Z,0.53
2023-02-11T06:26:20.654Z,0.54
2023-02-11T06:27:20.648Z,0.54
2023-02-11T06:28:20.791Z,0.54
2023-02-11T06:29:20.627Z,0.54
2023-02-11T06:30:20.617Z,0.54
2023-02-11T06:31:20.735Z,0.54
2023-02-11T06:32:42.199Z,0.54
2023-02-11T06:33:20.596Z,0.54
2023-02-11T06:34:20.580Z,0.54
2023-02-11T06:35:20.571Z,0.54
2023-02-11T06:36:20.567Z,0.54
2023-02-11T06:37:20.559Z,0.55
2023-02-11T06:38:20.551Z,0.55
2023-02-11T06:39:20.538Z,0.54
2023-02-11T06:40:20.527Z,0.53
2023-02-11T06:41:20.536Z,0.53
2023-02-11T06:42:20.521Z,0.53
2023-02-11T06:43:21.026Z,0.54
2023-02-11T06:44:20.501Z,0.54
2023-02-11T06:45:20.502Z,0.54
2023-02-11T06:46:20.510Z,0.55
2023-02-11T06:47:20.488Z,0.54
2023-02-11T06:48:20.458Z,0.54
2023-02-11T06:49:20.504Z,0.54
2023-02-11T06:50:20.445Z,0.53
2023-02-11T06:51:20.431Z,0.54
2023-02-11T06:52:20.423Z,0.54
2023-02-11T06:53:20.418Z,0.54
2023-02-11T06:54:20.403Z,0.53
2023-02-11T06:55:20.401Z,0.53
2023-02-11T06:56:20.386Z,0.54
2023-02-11T06:57:20.377Z,0.54
2023-02-11T06:58:20.371Z,0.53
2023-02-11T06:59:20.364Z,0.54
2023-02-11T07:00:20.357Z,0.54
2023-02-11T07:01:20.395Z,0.54
2023-02-11T07:02:21.154Z,0.55
2023-02-11T07:03:20.388Z,0.53
2023-02-11T07:04:20.326Z,0.54
2023-02-11T07:05:20.304Z,0.55
2023-02-11T07:06:20.310Z,0.54
2023-02-11T07:07:20.289Z,0.55
2023-02-11T07:08:20.279Z,0.54
2023-02-11T07:09:20.286Z,0.55
2023-02-11T07:10:20.263Z,0.54
2023-02-11T07:11:20.253Z,0.54
2023-02-11T07:12:20.253Z,0.55
2023-02-11T07:13:20.243Z,0.54
2023-02-11T07:14:20.226Z,0.54
2023-02-11T07:15:20.217Z,0.54
2023-02-11T07:16:20.355Z,0.54
2023-02-11T07:17:20.200Z,0.54
2023-02-11T07:18:20.193Z,0.55
2023-02-11T07:19:20.223Z,0.55
2023-02-11T07:20:20.169Z,0.54
2023-02-11T07:21:20.162Z,0.55
2023-02-11T07:22:20.159Z,0.54
2023-02-11T07:23:20.148Z,0.53
2023-02-11T07:24:20.132Z,0.55
2023-02-11T07:25:20.134Z,0.56
2023-02-11T07:26:20.125Z,0.55
2023-02-11T07:27:20.111Z,0.54
2023-02-11T07:28:20.137Z,0.54
2023-02-11T07:29:20.100Z,0.54
2023-02-11T07:30:20.079Z,0.56
2023-02-11T07:31:20.292Z,0.56
2023-02-11T07:32:20.150Z,0.55
2023-02-11T07:33:20.054Z,0.55
2023-02-11T07:34:20.093Z,0.54
2023-02-11T07:35:20.105Z,0.56
2023-02-11T07:36:20.037Z,0.54
2023-02-11T07:37:20.075Z,0.56
2023-02-11T07:38:20.018Z,0.56
2023-02-11T07:39:20.040Z,0.56
2023-02-11T07:40:19.988Z,0.55
2023-02-11T07:41:19.986Z,0.56
2023-02-11T07:42:19.973Z,0.54
2023-02-11T07:43:19.965Z,0.55
2023-02-11T07:44:19.961Z,0.56
2023-02-11T07:45:19.954Z,0.56
2023-02-11T07:46:19.979Z,0.56
2023-02-11T07:47:19.930Z,0.56
2023-02-11T07:48:19.916Z,0.55
2023-02-11T07:49:19.914Z,0.55
2023-02-11T07:50:19.908Z,0.57
2023-02-11T07:51:19.923Z,0.55
2023-02-11T07:52:19.881Z,0.57
2023-02-11T07:53:19.872Z,0.56
2023-02-11T07:54:19.870Z,0.54
2023-02-11T07:55:19.854Z,0.57
2023-02-11T07:56:19.864Z,0.55
2023-02-11T07:57:19.838Z,0.56
2023-02-11T07:58:19.835Z,0.56
2023-02-11T07:59:19.832Z,0.58
2023-02-11T08:00:21.205Z,0.57
2023-02-11T08:01:19.889Z,0.56
2023-02-11T08:02:19.833Z,0.56
2023-02-11T08:03:19.784Z,0.57
2023-02-11T08:04:19.785Z,0.57
2023-02-11T08:05:19.767Z,0.57
2023-02-11T08:06:19.761Z,0.58
2023-02-11T08:07:19.772Z,0.57
2023-02-11T08:08:19.737Z,0.56
2023-02-11T08:09:19.739Z,0.56
2023-02-11T08:10:19.720Z,0.57
2023-02-11T08:11:19.727Z,0.57
2023-02-11T08:12:19.708Z,0.57
2023-02-11T08:13:19.696Z,0.56
2023-02-11T08:14:19.684Z,0.58
2023-02-11T08:15:19.673Z,0.57
2023-02-11T08:16:19.729Z,0.57
2023-02-11T08:17:19.656Z,0.55
2023-02-11T08:18:19.653Z,0.57
2023-02-11T08:19:19.640Z,0.56
2023-02-11T08:20:19.633Z,0.56
2023-02-11T08:21:19.645Z,0.57
2023-02-11T08:22:19.611Z,0.57
2023-02-11T08:23:19.629Z,0.57
2023-02-11T08:24:19.592Z,0.56
2023-02-11T08:25:19.586Z,0.56
2023-02-11T08:26:19.575Z,0.56
2023-02-11T08:27:19.571Z,0.56
2023-02-11T08:28:19.613Z,0.57
2023-02-11T08:29:19.550Z,0.56
2023-02-11T08:30:19.537Z,0.57
2023-02-11T08:31:19.776Z,0.56
2023-02-11T08:32:19.573Z,0.58
2023-02-11T08:33:19.512Z,0.57
2023-02-11T08:34:19.524Z,0.57
2023-02-11T08:35:19.498Z,0.57
2023-02-11T08:36:19.487Z,0.56
2023-02-11T08:37:19.475Z,0.57
2023-02-11T08:38:19.465Z,0.58
2023-02-11T08:39:20.665Z,0.57
2023-02-11T08:40:19.485Z,0.56
2023-02-11T08:41:19.472Z,0.56
2023-02-11T08:42:19.479Z,0.57
2023-02-11T08:43:19.450Z,0.56
2023-02-11T08:44:19.458Z,0.58
2023-02-11T08:45:19.443Z,0.57
2023-02-11T08:46:19.486Z,0.57
2023-02-11T08:47:19.426Z,0.56
2023-02-11T08:48:19.411Z,0.57
2023-02-11T08:49:19.403Z,0.58
2023-02-11T08:50:19.392Z,0.56
2023-02-11T08:51:19.385Z,0.57
2023-02-11T08:52:19.379Z,0.56
2023-02-11T08:53:19.363Z,0.56
2023-02-11T08:54:19.373Z,0.57
2023-02-11T08:55:19.458Z,0.56
2023-02-11T08:56:19.351Z,0.57
2023-02-11T08:57:19.331Z,0.56
2023-02-11T08:58:19.392Z,0.57
2023-02-11T08:59:19.312Z,0.57
2023-02-11T09:00:19.300Z,0.57
2023-02-11T09:01:21.117Z,0.58
2023-02-11T09:02:19.473Z,0.58
2023-02-11T09:03:19.274Z,0.58
2023-02-11T09:04:19.277Z,0.58
2023-02-11T09:05:19.257Z,0.58
2023-02-11T09:06:19.246Z,0.57
2023-02-11T09:07:19.241Z,0.57
2023-02-11T09:08:20.092Z,0.57
2023-02-11T09:09:19.233Z,0.58
2023-02-11T09:10:19.231Z,0.58
2023-02-11T09:11:19.231Z,0.57
2023-02-11T09:12:19.195Z,0.58
2023-02-11T09:13:19.185Z,0.58
2023-02-11T09:14:19.190Z,0.57
2023-02-11T09:15:19.167Z,0.58
2023-02-11T09:16:19.205Z,0.57
2023-02-11T09:17:19.157Z,0.56
2023-02-11T09:18:19.151Z,0.56
2023-02-11T09:19:19.137Z,0.57
2023-02-11T09:20:19.155Z,0.58
2023-02-11T09:21:19.131Z,0.57
2023-02-11T09:22:19.112Z,0.55
2023-02-11T09:23:19.104Z,0.57
2023-02-11T09:24:19.096Z,0.56
2023-02-11T09:25:19.088Z,0.56
2023-02-11T09:26:19.078Z,0.58
2023-02-11T09:27:19.086Z,0.56
2023-02-11T09:28:19.079Z,0.56
2023-02-11T09:29:19.071Z,0.56
2023-02-11T09:30:19.038Z,0.56
2023-02-11T09:31:19.132Z,0.57
2023-02-11T09:32:19.022Z,0.55
2023-02-11T09:33:19.009Z,0.55
2023-02-11T09:34:18.998Z,0.55
2023-02-11T09:35:18.993Z,0.56
2023-02-11T09:36:18.979Z,0.57
2023-02-11T09:37:18.986Z,0.56
2023-02-11T09:38:18.967Z,0.56
2023-02-11T09:39:18.963Z,0.56
2023-02-11T09:40:18.953Z,0.57
2023-02-11T09:41:18.933Z,0.56
2023-02-11T09:42:18.924Z,0.54
2023-02-11T09:43:19.016Z,0.57
2023-02-11T09:44:18.907Z,0.57
2023-02-11T09:45:18.902Z,0.56
2023-02-11T09:46:18.919Z,0.56
2023-02-11T09:47:18.881Z,0.55
2023-02-11T09:48:18.893Z,0.57
2023-02-11T09:49:18.866Z,0.56
2023-02-11T09:50:18.856Z,0.55
2023-02-11T09:51:18.852Z,0.56
2023-02-11T09:52:18.840Z,0.55
2023-02-11T09:53:18.840Z,0.56
2023-02-11T09:54:18.834Z,0.55
2023-02-11T09:55:18.833Z,0.56
2023-02-11T09:56:18.805Z,0.57
2023-02-11T09:57:28.332Z,0.56
2023-02-11T09:58:18.786Z,0.56
2023-02-11T09:59:18.806Z,0.56
2023-02-11T10:00:18.770Z,0.56
2023-02-11T10:01:20.971Z,0.56
2023-02-11T10:02:18.754Z,0.56
2023-02-11T10:03:18.743Z,0.56
2023-02-11T10:04:18.799Z,0.56
2023-02-11T10:05:18.725Z,0.56
2023-02-11T10:06:18.715Z,0.56
2023-02-11T10:07:18.708Z,0.56
2023-02-11T10:08:18.705Z,0.56
2023-02-11T10:09:18.691Z,0.55
2023-02-11T10:10:18.686Z,0.54
2023-02-11T10:11:30.928Z,0.54
2023-02-11T10:12:18.671Z,0.54
2023-02-11T10:13:18.658Z,0.55
2023-02-11T10:14:18.654Z,0.55
2023-02-11T10:15:18.665Z,0.55
2023-02-11T10:16:18.629Z,0.55
2023-02-11T10:17:18.622Z,0.56
2023-02-11T10:18:18.628Z,0.55
2023-02-11T10:19:18.608Z,0.55
2023-02-11T10:20:18.607Z,0.54
2023-02-11T10:21:18.583Z,0.55
2023-02-11T10:22:18.578Z,0.54
2023-02-11T10:23:18.570Z,0.54
2023-02-11T10:24:18.560Z,0.55
2023-02-11T10:25:18.554Z,0.54
2023-02-11T10:26:18.541Z,0.55
2023-02-11T10:27:18.545Z,0.53
2023-02-11T10:28:18.580Z,0.54
2023-02-11T10:29:18.510Z,0.53
2023-02-11T10:30:18.514Z,0.54
2023-02-11T10:31:18.610Z,0.53
2023-02-11T10:32:18.489Z,0.53
2023-02-11T10:33:18.473Z,0.54
2023-02-11T10:34:18.464Z,0.52
2023-02-11T10:35:18.464Z,0.54
2023-02-11T10:36:18.454Z,0.52
2023-02-11T10:37:18.440Z,0.53
2023-02-11T10:38:18.435Z,0.53
2023-02-11T10:39:18.425Z,0.53
2023-02-11T10:40:18.549Z,0.53
2023-02-11T10:41:18.406Z,0.53
2023-02-11T10:42:18.396Z,0.53
2023-02-11T10:43:18.395Z,0.52
2023-02-11T10:44:18.378Z,0.53
2023-02-11T10:45:18.370Z,0.53
2023-02-11T10:46:18.396Z,0.52
2023-02-11T10:47:18.384Z,0.53
2023-02-11T10:48:18.339Z,0.52
2023-02-11T10:49:18.337Z,0.52
2023-02-11T10:50:18.358Z,0.51
2023-02-11T10:51:18.313Z,0.53
2023-02-11T10:52:18.328Z,0.52
2023-02-11T10:53:18.301Z,0.52
2023-02-11T10:54:18.294Z,0.53
2023-02-11T10:55:18.280Z,0.52
2023-02-11T10:56:18.268Z,0.52
2023-02-11T10:57:18.261Z,0.52
2023-02-11T10:58:18.255Z,0.52
2023-02-11T10:59:21.152Z,0.52
2023-02-11T11:00:18.419Z,0.53
2023-02-11T11:01:24.219Z,0.53
2023-02-11T11:02:18.237Z,0.53
2023-02-11T11:03:18.234Z,0.53
2023-02-11T11:04:18.251Z,0.53
2023-02-11T11:05:18.198Z,0.54
2023-02-11T11:06:18.184Z,0.53
2023-02-11T11:07:18.186Z,0.52
2023-02-11T11:08:18.200Z,0.52
2023-02-11T11:09:18.162Z,0.53
2023-02-11T11:10:18.148Z,0.52
2023-02-11T11:11:18.134Z,0.52
2023-02-11T11:12:18.133Z,0.51
2023-02-11T11:13:18.119Z,0.52
2023-02-11T11:14:18.119Z,0.52
2023-02-11T11:15:18.105Z,0.53
2023-02-11T11:16:18.254Z,0.51
2023-02-11T11:17:18.082Z,0.52
2023-02-11T11:18:23.057Z,0.52
2023-02-11T11:19:18.094Z,0.52
2023-02-11T11:20:18.068Z,0.53
2023-02-11T11:21:18.071Z,0.53
2023-02-11T11:22:18.045Z,0.53
2023-02-11T11:23:18.034Z,0.52
2023-02-11T11:24:18.024Z,0.53
2023-02-11T11:25:18.014Z,0.53
2023-02-11T11:26:17.998Z,0.53
2023-02-11T11:27:17.999Z,0.52
2023-02-11T11:28:18.018Z,0.51
2023-02-11T11:29:17.979Z,0.53
2023-02-11T11:30:17.969Z,0.52
2023-02-11T11:31:18.149Z,0.53
2023-02-11T11:32:20.273Z,0.52
2023-02-11T11:33:17.941Z,0.52
2023-02-11T11:34:17.931Z,0.52
2023-02-11T11:35:17.945Z,0.52
2023-02-11T11:36:17.920Z,0.52
2023-02-11T11:37:17.905Z,0.51
2023-02-11T11:38:17.898Z,0.51
2023-02-11T11:39:17.885Z,0.50
2023-02-11T11:40:17.882Z,0.51
2023-02-11T11:41:17.864Z,0.52
2023-02-11T11:42:17.861Z,0.51
2023-02-11T11:43:17.850Z,0.52
2023-02-11T11:44:17.837Z,0.52
2023-02-11T11:45:17.827Z,0.54
2023-02-11T11:46:17.850Z,0.52
2023-02-11T11:47:17.810Z,0.52
2023-02-11T11:48:17.800Z,0.52
2023-02-11T11:49:17.790Z,0.51
2023-02-11T11:50:20.166Z,0.51
2023-02-11T11:51:17.802Z,0.51
2023-02-11T11:52:17.766Z,0.51
2023-02-11T11:53:17.767Z,0.52
2023-02-11T11:54:17.749Z,0.51
2023-02-11T11:55:17.748Z,0.51
2023-02-11T11:56:17.731Z,0.53
2023-02-11T11:57:17.720Z,0.51
2023-02-11T11:58:17.718Z,0.51
2023-02-11T11:59:17.704Z,0.52
2023-02-11T12:00:17.720Z,0.52
2023-02-11T12:01:17.684Z,0.52
2023-02-11T12:02:17.719Z,0.52
2023-02-11T12:03:17.787Z,0.51
2023-02-11T12:04:17.667Z,0.53
2023-02-11T12:05:17.650Z,0.53
2023-02-11T12:06:17.641Z,0.51
2023-02-11T12:07:17.660Z,0.52
2023-02-11T12:08:17.629Z,0.52
2023-02-11T12:09:17.616Z,0.51
2023-02-11T12:10:17.603Z,0.52
2023-02-11T12:11:18.608Z,0.52
2023-02-11T12:12:17.592Z,0.53
2023-02-11T12:13:17.577Z,0.52
2023-02-11T12:14:17.575Z,0.52
2023-02-11T12:15:17.568Z,0.50
2023-02-11T12:16:17.643Z,0.52
2023-02-11T12:17:17.541Z,0.51
2023-02-11T12:18:17.535Z,0.52
2023-02-11T12:19:17.528Z,0.52
2023-02-11T12:20:17.520Z,0.52
2023-02-11T12:21:17.504Z,0.52
2023-02-11T12:22:17.502Z,0.53
2023-02-11T12:23:17.511Z,0.52
2023-02-11T12:24:17.599Z,0.52
2023-02-11T12:25:17.482Z,0.52
2023-02-11T12:26:17.462Z,0.51
2023-02-11T12:27:17.453Z,0.51
2023-02-11T12:28:17.502Z,0.52
2023-02-11T12:29:17.434Z,0.53
2023-02-11T12:30:17.430Z,0.52
2023-02-11T12:31:17.571Z,0.52
2023-02-11T12:32:17.504Z,0.51
2023-02-11T12:33:17.396Z,0.51
2023-02-11T12:34:17.389Z,0.51
2023-02-11T12:35:17.385Z,0.53
2023-02-11T12:36:17.371Z,0.52
2023-02-11T12:37:17.380Z,0.52
2023-02-11T12:38:17.349Z,0.51
2023-02-11T12:39:17.366Z,0.52
2023-02-11T12:40:17.341Z,0.52
2023-02-11T12:41:17.359Z,0.52
2023-02-11T12:42:17.335Z,0.51
2023-02-11T12:43:17.314Z,0.50
2023-02-11T12:44:17.313Z,0.52
2023-02-11T12:45:17.297Z,0.52
2023-02-11T12:46:17.460Z,0.52
2023-02-11T12:47:17.273Z,0.52
2023-02-11T12:48:17.272Z,0.52
2023-02-11T12:49:17.268Z,0.53
2023-02-11T12:50:17.260Z,0.53
2023-02-11T12:51:17.248Z,0.53
2023-02-11T12:52:17.236Z,0.53
2023-02-11T12:53:17.226Z,0.52
2023-02-11T12:54:17.218Z,0.53
2023-02-11T12:55:17.230Z,0.53
2023-02-11T12:56:17.199Z,0.53
2023-02-11T12:57:17.182Z,0.52
2023-02-11T12:58:17.197Z,0.52
2023-02-11T12:59:17.175Z,0.53
2023-02-11T13:00:17.154Z,0.53
2023-02-11T13:01:17.279Z,0.54
2023-02-11T13:02:17.193Z,0.54
2023-02-11T13:03:17.126Z,0.52
2023-02-11T13:04:17.122Z,0.53
2023-02-11T13:05:17.111Z,0.52
2023-02-11T13:06:17.107Z,0.54
2023-02-11T13:07:17.092Z,0.53
2023-02-11T13:08:17.099Z,0.52
2023-02-11T13:09:17.076Z,0.52
2023-02-11T13:10:17.084Z,0.52
2023-02-11T13:11:17.083Z,0.53
2023-02-11T13:12:17.052Z,0.53
2023-02-11T13:13:17.065Z,0.53
2023-02-11T13:14:17.040Z,0.51
2023-02-11T13:15:17.024Z,0.52
2023-02-11T13:16:17.053Z,0.53
2023-02-11T13:17:17.005Z,0.52
2023-02-11T13:18:19.095Z,0.53
2023-02-11T13:19:16.992Z,0.55
2023-02-11T13:20:16.990Z,0.55
2023-02-11T13:21:16.977Z,0.52
2023-02-11T13:22:16.956Z,0.52
2023-02-11T13:23:16.951Z,0.53
2023-02-11T13:24:16.942Z,0.53
2023-02-11T13:25:16.933Z,0.53
2023-02-11T13:26:16.929Z,0.54
2023-02-11T13:27:16.938Z,0.53
2023-02-11T13:28:16.977Z,0.54
2023-02-11T13:29:16.909Z,0.52
2023-02-11T13:30:16.884Z,0.52
2023-02-11T13:31:17.738Z,0.53
2023-02-11T13:32:16.884Z,0.54
2023-02-11T13:33:16.916Z,0.55
2023-02-11T13:34:16.854Z,0.54
2023-02-11T13:35:16.845Z,0.54
2023-02-11T13:36:16.841Z,0.54
2023-02-11T13:37:16.833Z,0.54
2023-02-11T13:38:16.820Z,0.54
2023-02-11T13:39:16.801Z,0.56
2023-02-11T13:40:16.792Z,0.53
2023-02-11T13:41:16.806Z,0.53
2023-02-11T13:42:16.779Z,0.53
2023-02-11T13:43:16.796Z,0.53
2023-02-11T13:44:16.755Z,0.54
2023-02-11T13:45:16.770Z,0.55
2023-02-11T13:46:16.809Z,0.53
2023-02-11T13:47:16.727Z,0.54
2023-02-11T13:48:16.725Z,0.55
2023-02-11T13:49:16.718Z,0.55
2023-02-11T13:50:16.704Z,0.54
2023-02-11T13:51:16.692Z,0.55
2023-02-11T13:52:16.680Z,0.55
2023-02-11T13:53:16.676Z,0.54
2023-02-11T13:54:16.667Z,0.54
2023-02-11T13:55:16.655Z,0.54
2023-02-11T13:56:16.663Z,0.54
2023-02-11T13:57:16.635Z,0.54
2023-02-11T13:58:16.634Z,0.54
2023-02-11T13:59:16.647Z,0.53
2023-02-11T14:00:16.612Z,0.54
2023-02-11T14:01:16.640Z,0.54
2023-02-11T14:02:16.635Z,0.56
2023-02-11T14:03:16.584Z,0.55
2023-02-11T14:04:16.572Z,0.54
2023-02-11T14:05:16.579Z,0.53
2023-02-11T14:06:16.552Z,0.55
2023-02-11T14:07:16.546Z,0.55
2023-02-11T14:08:16.532Z,0.55
2023-02-11T14:09:16.531Z,0.55